sensor_id;sensor_type;location;lat;lon;timestamp;P1;durP1;ratioP1;P2;durP2;ratioP2
27161;SDS011;54464;50.558;9.704;2023-02-28T00:01:21;4.93;;;3.13;;
27161;SDS011;54464;50.558;9.704;2023-02-28T00:03:47;4.33;;;3.27;;
27161;SDS011;54464;50.558;9.704;2023-02-28T00:06:13;4.07;;;3.23;;
27161;SDS011;54464;50.558;9.704;2023-02-28T00:08:39;3.87;;;3.10;;
27161;SDS011;54464;50.558;9.704;2023-02-28T00:11:05;3.90;;;3.20;;
27161;SDS011;54464;50.558;9.704;2023-02-28T00:13:33;3.47;;;3.17;;
27161;SDS011;54464;50.558;9.704;2023-02-28T00:16:03;3.50;;;3.20;;
27161;SDS011;54464;50.558;9.704;2023-02-28T00:18:30;3.40;;;3.03;;
27161;SDS011;54464;50.558;9.704;2023-02-28T00:20:57;4.10;;;3.40;;
27161;SDS011;54464;50.558;9.704;2023-02-28T00:23:23;4.30;;;3.70;;
27161;SDS011;54464;50.558;9.704;2023-02-28T00:25:49;5.03;;;3.90;;
27161;SDS011;54464;50.558;9.704;2023-02-28T00:28:15;3.70;;;3.30;;
27161;SDS011;54464;50.558;9.704;2023-02-28T00:30:41;3.80;;;3.37;;
27161;SDS011;54464;50.558;9.704;2023-02-28T00:33:06;4.07;;;3.33;;
27161;SDS011;54464;50.558;9.704;2023-02-28T00:35:32;5.50;;;3.30;;
27161;SDS011;54464;50.558;9.704;2023-02-28T00:37:58;3.73;;;3.00;;
27161;SDS011;54464;50.558;9.704;2023-02-28T00:40:23;4.07;;;3.03;;
27161;SDS011;54464;50.558;9.704;2023-02-28T00:42:49;3.17;;;2.87;;
27161;SDS011;54464;50.558;9.704;2023-02-28T00:45:15;3.00;;;2.73;;
27161;SDS011;54464;50.558;9.704;2023-02-28T00:47:40;3.27;;;2.97;;
27161;SDS011;54464;50.558;9.704;2023-02-28T00:50:06;3.47;;;3.17;;
27161;SDS011;54464;50.558;9.704;2023-02-28T00:52:33;3.37;;;3.00;;
27161;SDS011;54464;50.558;9.704;2023-02-28T00:54:59;3.00;;;2.80;;
27161;SDS011;54464;50.558;9.704;2023-02-28T00:57:24;3.30;;;3.00;;
27161;SDS011;54464;50.558;9.704;2023-02-28T00:59:51;4.17;;;2.93;;
27161;SDS011;54464;50.558;9.704;2023-02-28T01:02:19;3.30;;;2.67;;
27161;SDS011;54464;50.558;9.704;2023-02-28T01:04:45;3.30;;;2.93;;
27161;SDS011;54464;50.558;9.704;2023-02-28T01:07:12;3.00;;;2.80;;
27161;SDS011;54464;50.558;9.704;2023-02-28T01:09:39;3.97;;;3.10;;
27161;SDS011;54464;50.558;9.704;2023-02-28T01:12:06;4.77;;;3.00;;
27161;SDS011;54464;50.558;9.704;2023-02-28T01:14:32;2.73;;;2.50;;
27161;SDS011;54464;50.558;9.704;2023-02-28T01:16:58;3.30;;;3.03;;
27161;SDS011;54464;50.558;9.704;2023-02-28T01:19:23;3.03;;;2.70;;
27161;SDS011;54464;50.558;9.704;2023-02-28T01:21:49;4.13;;;2.80;;
27161;SDS011;54464;50.558;9.704;2023-02-28T01:24:15;3.23;;;2.93;;
27161;SDS011;54464;50.558;9.704;2023-02-28T01:26:40;3.83;;;2.93;;
27161;SDS011;54464;50.558;9.704;2023-02-28T01:29:06;2.80;;;2.60;;
27161;SDS011;54464;50.558;9.704;2023-02-28T01:31:32;2.83;;;2.63;;
27161;SDS011;54464;50.558;9.704;2023-02-28T01:33:57;3.10;;;2.80;;
27161;SDS011;54464;50.558;9.704;2023-02-28T01:36:24;3.67;;;2.80;;
27161;SDS011;54464;50.558;9.704;2023-02-28T01:38:50;3.07;;;2.60;;
27161;SDS011;54464;50.558;9.704;2023-02-28T01:41:18;3.17;;;2.67;;
27161;SDS011;54464;50.558;9.704;2023-02-28T01:46:11;3.13;;;2.93;;
27161;SDS011;54464;50.558;9.704;2023-02-28T01:48:38;3.67;;;3.30;;
27161;SDS011;54464;50.558;9.704;2023-02-28T01:51:10;4.00;;;3.60;;
27161;SDS011;54464;50.558;9.704;2023-02-28T01:53:42;4.87;;;3.37;;
27161;SDS011;54464;50.558;9.704;2023-02-28T01:56:13;3.77;;;3.13;;
27161;SDS011;54464;50.558;9.704;2023-02-28T01:58:46;4.17;;;3.20;;
27161;SDS011;54464;50.558;9.704;2023-02-28T02:01:12;3.23;;;2.93;;
27161;SDS011;54464;50.558;9.704;2023-02-28T02:03:46;3.33;;;2.80;;
27161;SDS011;54464;50.558;9.704;2023-02-28T02:06:20;3.20;;;2.90;;
27161;SDS011;54464;50.558;9.704;2023-02-28T02:08:50;3.07;;;2.77;;
27161;SDS011;54464;50.558;9.704;2023-02-28T02:11:17;3.30;;;3.00;;
27161;SDS011;54464;50.558;9.704;2023-02-28T02:16:49;3.43;;;3.03;;
27161;SDS011;54464;50.558;9.704;2023-02-28T02:25:32;3.40;;;2.70;;
27161;SDS011;54464;50.558;9.704;2023-02-28T02:30:43;3.97;;;2.50;;
27161;SDS011;54464;50.558;9.704;2023-02-28T02:33:13;3.03;;;2.83;;
27161;SDS011;54464;50.558;9.704;2023-02-28T02:36:18;3.23;;;2.67;;
27161;SDS011;54464;50.558;9.704;2023-02-28T02:43:46;3.57;;;2.70;;
27161;SDS011;54464;50.558;9.704;2023-02-28T02:46:29;2.67;;;2.47;;
27161;SDS011;54464;50.558;9.704;2023-02-28T02:49:00;3.40;;;2.67;;
27161;SDS011;54464;50.558;9.704;2023-02-28T02:51:30;3.50;;;2.70;;
27161;SDS011;54464;50.558;9.704;2023-02-28T02:56:43;2.57;;;2.37;;
27161;SDS011;54464;50.558;9.704;2023-02-28T02:59:12;2.67;;;2.47;;
27161;SDS011;54464;50.558;9.704;2023-02-28T03:01:46;3.07;;;2.63;;
27161;SDS011;54464;50.558;9.704;2023-02-28T03:04:18;3.50;;;2.70;;
27161;SDS011;54464;50.558;9.704;2023-02-28T03:06:46;2.57;;;2.37;;
27161;SDS011;54464;50.558;9.704;2023-02-28T03:09:11;2.90;;;2.60;;
27161;SDS011;54464;50.558;9.704;2023-02-28T03:11:37;2.63;;;2.30;;
27161;SDS011;54464;50.558;9.704;2023-02-28T03:24:41;3.63;;;2.63;;
27161;SDS011;54464;50.558;9.704;2023-02-28T03:27:29;4.30;;;2.93;;
27161;SDS011;54464;50.558;9.704;2023-02-28T03:30:22;2.80;;;2.50;;
27161;SDS011;54464;50.558;9.704;2023-02-28T03:32:57;3.37;;;2.57;;
27161;SDS011;54464;50.558;9.704;2023-02-28T03:35:34;3.17;;;2.70;;
27161;SDS011;54464;50.558;9.704;2023-02-28T03:38:27;3.70;;;2.50;;
27161;SDS011;54464;50.558;9.704;2023-02-28T03:41:15;2.90;;;2.50;;
27161;SDS011;54464;50.558;9.704;2023-02-28T03:43:48;3.17;;;2.90;;
27161;SDS011;54464;50.558;9.704;2023-02-28T03:46:21;3.03;;;2.67;;
27161;SDS011;54464;50.558;9.704;2023-02-28T03:49:03;3.03;;;2.60;;
27161;SDS011;54464;50.558;9.704;2023-02-28T03:51:36;3.00;;;2.73;;
27161;SDS011;54464;50.558;9.704;2023-02-28T03:54:06;3.93;;;2.70;;
27161;SDS011;54464;50.558;9.704;2023-02-28T03:57:10;3.57;;;2.83;;
27161;SDS011;54464;50.558;9.704;2023-02-28T03:59:43;3.60;;;2.90;;
27161;SDS011;54464;50.558;9.704;2023-02-28T04:02:12;3.60;;;2.80;;
27161;SDS011;54464;50.558;9.704;2023-02-28T04:04:38;3.67;;;2.83;;
27161;SDS011;54464;50.558;9.704;2023-02-28T04:07:10;3.33;;;3.03;;
27161;SDS011;54464;50.558;9.704;2023-02-28T04:09:36;3.33;;;2.80;;
27161;SDS011;54464;50.558;9.704;2023-02-28T04:12:03;3.37;;;2.90;;
27161;SDS011;54464;50.558;9.704;2023-02-28T04:14:29;3.50;;;3.00;;
27161;SDS011;54464;50.558;9.704;2023-02-28T04:16:54;4.13;;;3.20;;
27161;SDS011;54464;50.558;9.704;2023-02-28T04:19:20;3.60;;;3.13;;
27161;SDS011;54464;50.558;9.704;2023-02-28T04:21:47;3.63;;;3.33;;
27161;SDS011;54464;50.558;9.704;2023-02-28T04:24:15;4.50;;;3.23;;
27161;SDS011;54464;50.558;9.704;2023-02-28T04:26:46;4.67;;;3.23;;
27161;SDS011;54464;50.558;9.704;2023-02-28T04:29:14;3.47;;;2.97;;
27161;SDS011;54464;50.558;9.704;2023-02-28T04:31:47;4.80;;;3.90;;
27161;SDS011;54464;50.558;9.704;2023-02-28T04:34:13;5.23;;;3.50;;
27161;SDS011;54464;50.558;9.704;2023-02-28T04:36:39;4.77;;;3.60;;
27161;SDS011;54464;50.558;9.704;2023-02-28T04:39:05;4.17;;;3.77;;
27161;SDS011;54464;50.558;9.704;2023-02-28T04:41:30;5.40;;;4.00;;
27161;SDS011;54464;50.558;9.704;2023-02-28T04:43:56;4.07;;;3.67;;
27161;SDS011;54464;50.558;9.704;2023-02-28T04:46:22;4.63;;;3.60;;
27161;SDS011;54464;50.558;9.704;2023-02-28T04:48:47;4.17;;;3.73;;
27161;SDS011;54464;50.558;9.704;2023-02-28T04:51:14;4.07;;;3.67;;
27161;SDS011;54464;50.558;9.704;2023-02-28T04:53:41;4.73;;;4.07;;
27161;SDS011;54464;50.558;9.704;2023-02-28T04:56:08;4.57;;;4.10;;
27161;SDS011;54464;50.558;9.704;2023-02-28T04:58:36;6.83;;;4.43;;
27161;SDS011;54464;50.558;9.704;2023-02-28T05:01:03;5.10;;;3.80;;
27161;SDS011;54464;50.558;9.704;2023-02-28T05:03:42;6.00;;;4.10;;
27161;SDS011;54464;50.558;9.704;2023-02-28T05:06:08;4.30;;;3.83;;
27161;SDS011;54464;50.558;9.704;2023-02-28T05:08:35;5.10;;;4.03;;
27161;SDS011;54464;50.558;9.704;2023-02-28T05:11:01;4.53;;;3.97;;
27161;SDS011;54464;50.558;9.704;2023-02-28T05:13:27;4.83;;;4.13;;
27161;SDS011;54464;50.558;9.704;2023-02-28T05:15:53;4.43;;;3.80;;
27161;SDS011;54464;50.558;9.704;2023-02-28T05:18:19;4.87;;;4.20;;
27161;SDS011;54464;50.558;9.704;2023-02-28T05:20:45;5.30;;;4.30;;
27161;SDS011;54464;50.558;9.704;2023-02-28T05:23:11;5.73;;;4.50;;
27161;SDS011;54464;50.558;9.704;2023-02-28T05:25:38;5.80;;;4.33;;
27161;SDS011;54464;50.558;9.704;2023-02-28T05:28:04;5.23;;;4.30;;
27161;SDS011;54464;50.558;9.704;2023-02-28T05:30:30;5.80;;;4.47;;
27161;SDS011;54464;50.558;9.704;2023-02-28T05:32:56;5.03;;;4.17;;
27161;SDS011;54464;50.558;9.704;2023-02-28T05:35:23;4.90;;;4.37;;
27161;SDS011;54464;50.558;9.704;2023-02-28T05:37:49;5.37;;;4.37;;
27161;SDS011;54464;50.558;9.704;2023-02-28T05:40:15;5.30;;;4.80;;
27161;SDS011;54464;50.558;9.704;2023-02-28T05:42:41;6.30;;;5.07;;
27161;SDS011;54464;50.558;9.704;2023-02-28T05:45:07;6.13;;;4.90;;
27161;SDS011;54464;50.558;9.704;2023-02-28T05:47:34;5.40;;;4.70;;
27161;SDS011;54464;50.558;9.704;2023-02-28T05:50:00;6.10;;;4.67;;
27161;SDS011;54464;50.558;9.704;2023-02-28T05:52:27;5.43;;;4.50;;
27161;SDS011;54464;50.558;9.704;2023-02-28T05:54:55;6.97;;;5.17;;
27161;SDS011;54464;50.558;9.704;2023-02-28T05:57:21;6.40;;;5.03;;
27161;SDS011;54464;50.558;9.704;2023-02-28T05:59:47;5.40;;;4.87;;
27161;SDS011;54464;50.558;9.704;2023-02-28T06:02:13;5.90;;;5.27;;
27161;SDS011;54464;50.558;9.704;2023-02-28T06:04:40;6.63;;;5.20;;
27161;SDS011;54464;50.558;9.704;2023-02-28T06:07:06;5.97;;;5.37;;
27161;SDS011;54464;50.558;9.704;2023-02-28T06:09:33;6.47;;;5.37;;
27161;SDS011;54464;50.558;9.704;2023-02-28T06:11:59;6.53;;;5.17;;
27161;SDS011;54464;50.558;9.704;2023-02-28T06:14:28;6.30;;;5.50;;
27161;SDS011;54464;50.558;9.704;2023-02-28T06:16:53;6.43;;;5.50;;
27161;SDS011;54464;50.558;9.704;2023-02-28T06:19:19;8.37;;;5.70;;
27161;SDS011;54464;50.558;9.704;2023-02-28T06:21:48;8.73;;;5.63;;
27161;SDS011;54464;50.558;9.704;2023-02-28T06:24:15;6.37;;;5.50;;
27161;SDS011;54464;50.558;9.704;2023-02-28T06:26:41;6.43;;;5.50;;
27161;SDS011;54464;50.558;9.704;2023-02-28T06:29:07;8.00;;;6.30;;
27161;SDS011;54464;50.558;9.704;2023-02-28T06:31:32;8.07;;;6.27;;
27161;SDS011;54464;50.558;9.704;2023-02-28T06:33:58;8.73;;;6.53;;
27161;SDS011;54464;50.558;9.704;2023-02-28T06:36:24;7.73;;;6.23;;
27161;SDS011;54464;50.558;9.704;2023-02-28T06:38:49;8.83;;;6.30;;
27161;SDS011;54464;50.558;9.704;2023-02-28T06:41:19;6.90;;;5.90;;
27161;SDS011;54464;50.558;9.704;2023-02-28T06:43:49;8.00;;;6.37;;
27161;SDS011;54464;50.558;9.704;2023-02-28T06:46:15;8.60;;;7.10;;
27161;SDS011;54464;50.558;9.704;2023-02-28T06:48:42;9.37;;;6.70;;
27161;SDS011;54464;50.558;9.704;2023-02-28T06:51:10;6.70;;;6.00;;
27161;SDS011;54464;50.558;9.704;2023-02-28T06:53:40;8.13;;;6.23;;
27161;SDS011;54464;50.558;9.704;2023-02-28T06:56:10;9.03;;;6.67;;
27161;SDS011;54464;50.558;9.704;2023-02-28T06:58:37;9.40;;;6.70;;
27161;SDS011;54464;50.558;9.704;2023-02-28T07:01:04;7.47;;;5.87;;
27161;SDS011;54464;50.558;9.704;2023-02-28T07:03:30;7.43;;;6.03;;
27161;SDS011;54464;50.558;9.704;2023-02-28T07:05:56;8.50;;;6.70;;
27161;SDS011;54464;50.558;9.704;2023-02-28T07:08:25;8.30;;;6.63;;
27161;SDS011;54464;50.558;9.704;2023-02-28T07:10:55;9.73;;;6.67;;
27161;SDS011;54464;50.558;9.704;2023-02-28T07:13:21;7.40;;;6.23;;
27161;SDS011;54464;50.558;9.704;2023-02-28T07:15:54;8.80;;;6.60;;
27161;SDS011;54464;50.558;9.704;2023-02-28T07:18:20;7.27;;;6.27;;
27161;SDS011;54464;50.558;9.704;2023-02-28T07:20:46;8.57;;;6.43;;
27161;SDS011;54464;50.558;9.704;2023-02-28T07:23:11;7.60;;;6.53;;
27161;SDS011;54464;50.558;9.704;2023-02-28T07:25:37;6.67;;;5.90;;
27161;SDS011;54464;50.558;9.704;2023-02-28T07:28:02;8.97;;;6.40;;
27161;SDS011;54464;50.558;9.704;2023-02-28T07:30:28;7.20;;;5.80;;
27161;SDS011;54464;50.558;9.704;2023-02-28T07:32:54;7.70;;;5.97;;
27161;SDS011;54464;50.558;9.704;2023-02-28T07:35:21;6.97;;;5.67;;
27161;SDS011;54464;50.558;9.704;2023-02-28T07:37:47;6.80;;;5.90;;
27161;SDS011;54464;50.558;9.704;2023-02-28T07:40:13;7.20;;;6.10;;
27161;SDS011;54464;50.558;9.704;2023-02-28T07:42:40;8.23;;;6.13;;
27161;SDS011;54464;50.558;9.704;2023-02-28T07:45:07;7.73;;;6.00;;
27161;SDS011;54464;50.558;9.704;2023-02-28T07:47:33;6.73;;;5.50;;
27161;SDS011;54464;50.558;9.704;2023-02-28T07:49:59;6.20;;;5.60;;
27161;SDS011;54464;50.558;9.704;2023-02-28T07:52:25;7.03;;;5.63;;
27161;SDS011;54464;50.558;9.704;2023-02-28T07:54:51;5.90;;;5.17;;
27161;SDS011;54464;50.558;9.704;2023-02-28T07:57:16;7.60;;;6.13;;
27161;SDS011;54464;50.558;9.704;2023-02-28T07:59:42;5.60;;;5.03;;
27161;SDS011;54464;50.558;9.704;2023-02-28T08:02:15;6.57;;;5.40;;
27161;SDS011;54464;50.558;9.704;2023-02-28T08:04:42;6.97;;;5.30;;
27161;SDS011;54464;50.558;9.704;2023-02-28T08:07:08;6.70;;;5.10;;
27161;SDS011;54464;50.558;9.704;2023-02-28T08:09:38;6.23;;;5.07;;
27161;SDS011;54464;50.558;9.704;2023-02-28T08:12:04;7.13;;;5.07;;
27161;SDS011;54464;50.558;9.704;2023-02-28T08:14:30;6.13;;;4.90;;
27161;SDS011;54464;50.558;9.704;2023-02-28T08:16:55;5.57;;;4.87;;
27161;SDS011;54464;50.558;9.704;2023-02-28T08:19:21;5.27;;;4.60;;
27161;SDS011;54464;50.558;9.704;2023-02-28T08:21:47;6.93;;;4.80;;
27161;SDS011;54464;50.558;9.704;2023-02-28T08:24:12;5.53;;;5.03;;
27161;SDS011;54464;50.558;9.704;2023-02-28T08:26:38;5.20;;;4.60;;
27161;SDS011;54464;50.558;9.704;2023-02-28T08:29:04;5.00;;;4.50;;
27161;SDS011;54464;50.558;9.704;2023-02-28T08:31:29;5.10;;;4.60;;
27161;SDS011;54464;50.558;9.704;2023-02-28T08:33:55;6.17;;;4.37;;
27161;SDS011;54464;50.558;9.704;2023-02-28T08:36:24;5.10;;;4.60;;
27161;SDS011;54464;50.558;9.704;2023-02-28T08:38:50;5.60;;;4.63;;
27161;SDS011;54464;50.558;9.704;2023-02-28T08:41:16;4.70;;;4.30;;
27161;SDS011;54464;50.558;9.704;2023-02-28T08:43:42;5.60;;;5.00;;
27161;SDS011;54464;50.558;9.704;2023-02-28T08:46:08;5.30;;;4.80;;
27161;SDS011;54464;50.558;9.704;2023-02-28T08:48:38;6.13;;;4.43;;
27161;SDS011;54464;50.558;9.704;2023-02-28T08:51:05;5.60;;;5.10;;
27161;SDS011;54464;50.558;9.704;2023-02-28T08:53:34;5.00;;;4.50;;
27161;SDS011;54464;50.558;9.704;2023-02-28T08:56:02;4.93;;;4.17;;
27161;SDS011;54464;50.558;9.704;2023-02-28T08:58:38;6.10;;;4.33;;
27161;SDS011;54464;50.558;9.704;2023-02-28T09:01:24;4.50;;;4.10;;
27161;SDS011;54464;50.558;9.704;2023-02-28T09:03:52;4.87;;;4.20;;
27161;SDS011;54464;50.558;9.704;2023-02-28T09:06:19;4.37;;;3.97;;
27161;SDS011;54464;50.558;9.704;2023-02-28T09:08:46;4.60;;;4.20;;
27161;SDS011;54464;50.558;9.704;2023-02-28T09:11:11;5.17;;;4.20;;
27161;SDS011;54464;50.558;9.704;2023-02-28T09:13:38;4.47;;;4.07;;
27161;SDS011;54464;50.558;9.704;2023-02-28T09:16:06;4.00;;;3.70;;
27161;SDS011;54464;50.558;9.704;2023-02-28T09:18:34;5.00;;;4.30;;
27161;SDS011;54464;50.558;9.704;2023-02-28T09:21:04;5.00;;;4.10;;
27161;SDS011;54464;50.558;9.704;2023-02-28T09:23:30;5.00;;;3.70;;
27161;SDS011;54464;50.558;9.704;2023-02-28T09:25:56;4.40;;;3.80;;
27161;SDS011;54464;50.558;9.704;2023-02-28T09:28:22;4.73;;;3.90;;
27161;SDS011;54464;50.558;9.704;2023-02-28T09:30:48;4.50;;;3.80;;
27161;SDS011;54464;50.558;9.704;2023-02-28T09:33:16;4.20;;;3.80;;
27161;SDS011;54464;50.558;9.704;2023-02-28T09:35:43;6.67;;;4.17;;
27161;SDS011;54464;50.558;9.704;2023-02-28T09:38:09;4.97;;;4.30;;
27161;SDS011;54464;50.558;9.704;2023-02-28T09:40:37;4.63;;;3.80;;
27161;SDS011;54464;50.558;9.704;2023-02-28T09:43:12;4.30;;;3.80;;
27161;SDS011;54464;50.558;9.704;2023-02-28T09:45:40;4.97;;;4.00;;
27161;SDS011;54464;50.558;9.704;2023-02-28T09:48:10;7.43;;;5.00;;
27161;SDS011;54464;50.558;9.704;2023-02-28T09:50:46;4.40;;;3.90;;
27161;SDS011;54464;50.558;9.704;2023-02-28T09:53:35;4.30;;;3.90;;
27161;SDS011;54464;50.558;9.704;2023-02-28T09:56:05;5.50;;;4.17;;
27161;SDS011;54464;50.558;9.704;2023-02-28T10:01:19;4.80;;;4.30;;
27161;SDS011;54464;50.558;9.704;2023-02-28T10:06:23;5.67;;;4.30;;
27161;SDS011;54464;50.558;9.704;2023-02-28T10:11:23;5.17;;;4.03;;
27161;SDS011;54464;50.558;9.704;2023-02-28T10:13:52;4.00;;;3.60;;
27161;SDS011;54464;50.558;9.704;2023-02-28T10:16:35;4.53;;;4.00;;
27161;SDS011;54464;50.558;9.704;2023-02-28T10:19:30;4.30;;;3.90;;
27161;SDS011;54464;50.558;9.704;2023-02-28T10:24:49;4.63;;;4.23;;
27161;SDS011;54464;50.558;9.704;2023-02-28T10:27:22;4.90;;;4.40;;
27161;SDS011;54464;50.558;9.704;2023-02-28T10:29:50;5.13;;;4.63;;
27161;SDS011;54464;50.558;9.704;2023-02-28T10:32:31;4.70;;;4.20;;
27161;SDS011;54464;50.558;9.704;2023-02-28T10:35:18;5.03;;;3.87;;
27161;SDS011;54464;50.558;9.704;2023-02-28T10:37:50;4.57;;;4.17;;
27161;SDS011;54464;50.558;9.704;2023-02-28T10:42:57;4.57;;;4.17;;
27161;SDS011;54464;50.558;9.704;2023-02-28T10:45:25;5.30;;;4.10;;
27161;SDS011;54464;50.558;9.704;2023-02-28T11:04:19;5.33;;;4.23;;
27161;SDS011;54464;50.558;9.704;2023-02-28T11:09:50;5.80;;;4.20;;
27161;SDS011;54464;50.558;9.704;2023-02-28T11:12:36;4.47;;;4.03;;
27161;SDS011;54464;50.558;9.704;2023-02-28T11:15:17;5.37;;;4.00;;
27161;SDS011;54464;50.558;9.704;2023-02-28T11:17:57;5.40;;;4.67;;
27161;SDS011;54464;50.558;9.704;2023-02-28T11:20:36;6.07;;;4.40;;
27161;SDS011;54464;50.558;9.704;2023-02-28T11:23:02;5.20;;;4.70;;
27161;SDS011;54464;50.558;9.704;2023-02-28T11:25:32;5.07;;;4.17;;
27161;SDS011;54464;50.558;9.704;2023-02-28T11:28:02;5.63;;;4.50;;
27161;SDS011;54464;50.558;9.704;2023-02-28T11:30:40;4.80;;;4.30;;
27161;SDS011;54464;50.558;9.704;2023-02-28T11:33:28;5.47;;;4.30;;
27161;SDS011;54464;50.558;9.704;2023-02-28T11:35:58;4.30;;;3.73;;
27161;SDS011;54464;50.558;9.704;2023-02-28T11:38:29;5.10;;;4.47;;
27161;SDS011;54464;50.558;9.704;2023-02-28T11:41:09;4.77;;;3.63;;
27161;SDS011;54464;50.558;9.704;2023-02-28T11:46:49;4.20;;;3.80;;
27161;SDS011;54464;50.558;9.704;2023-02-28T12:10:37;4.63;;;4.23;;
27161;SDS011;54464;50.558;9.704;2023-02-28T12:22:12;4.90;;;4.50;;
27161;SDS011;54464;50.558;9.704;2023-02-28T12:27:16;5.67;;;5.17;;
27161;SDS011;54464;50.558;9.704;2023-02-28T12:29:48;5.80;;;5.30;;
27161;SDS011;54464;50.558;9.704;2023-02-28T12:32:26;5.70;;;4.90;;
27161;SDS011;54464;50.558;9.704;2023-02-28T12:34:57;5.23;;;4.50;;
27161;SDS011;54464;50.558;9.704;2023-02-28T12:37:50;5.47;;;4.97;;
27161;SDS011;54464;50.558;9.704;2023-02-28T12:40:23;5.20;;;4.70;;
27161;SDS011;54464;50.558;9.704;2023-02-28T12:43:03;5.43;;;4.70;;
27161;SDS011;54464;50.558;9.704;2023-02-28T12:48:18;6.00;;;5.03;;
27161;SDS011;54464;50.558;9.704;2023-02-28T12:50:50;6.37;;;5.00;;
27161;SDS011;54464;50.558;9.704;2023-02-28T12:58:39;5.60;;;4.83;;
27161;SDS011;54464;50.558;9.704;2023-02-28T13:09:25;5.30;;;4.80;;
27161;SDS011;54464;50.558;9.704;2023-02-28T13:11:52;4.93;;;4.20;;
27161;SDS011;54464;50.558;9.704;2023-02-28T13:19:37;5.00;;;4.50;;
27161;SDS011;54464;50.558;9.704;2023-02-28T13:27:51;5.63;;;5.03;;
27161;SDS011;54464;50.558;9.704;2023-02-28T13:38:39;5.30;;;4.80;;
27161;SDS011;54464;50.558;9.704;2023-02-28T13:51:50;5.63;;;4.83;;
27161;SDS011;54464;50.558;9.704;2023-02-28T14:05:24;5.40;;;4.90;;
27161;SDS011;54464;50.558;9.704;2023-02-28T14:07:53;5.57;;;4.97;;
27161;SDS011;54464;50.558;9.704;2023-02-28T14:10:25;5.20;;;4.70;;
27161;SDS011;54464;50.558;9.704;2023-02-28T14:12:58;5.37;;;4.87;;
27161;SDS011;54464;50.558;9.704;2023-02-28T14:15:27;5.40;;;4.60;;
27161;SDS011;54464;50.558;9.704;2023-02-28T14:18:19;7.53;;;5.00;;
27161;SDS011;54464;50.558;9.704;2023-02-28T14:20:47;4.93;;;4.30;;
27161;SDS011;54464;50.558;9.704;2023-02-28T14:28:33;5.30;;;4.80;;
27161;SDS011;54464;50.558;9.704;2023-02-28T14:31:10;5.37;;;4.80;;
27161;SDS011;54464;50.558;9.704;2023-02-28T14:34:03;5.70;;;5.17;;
27161;SDS011;54464;50.558;9.704;2023-02-28T14:36:37;6.07;;;5.20;;
27161;SDS011;54464;50.558;9.704;2023-02-28T14:39:15;5.70;;;5.17;;
27161;SDS011;54464;50.558;9.704;2023-02-28T14:41:44;5.30;;;4.80;;
27161;SDS011;54464;50.558;9.704;2023-02-28T14:44:14;5.60;;;5.07;;
27161;SDS011;54464;50.558;9.704;2023-02-28T14:46:43;5.60;;;5.00;;
27161;SDS011;54464;50.558;9.704;2023-02-28T14:52:28;6.30;;;5.70;;
27161;SDS011;54464;50.558;9.704;2023-02-28T14:55:00;6.73;;;5.30;;
27161;SDS011;54464;50.558;9.704;2023-02-28T14:57:33;7.60;;;5.10;;
27161;SDS011;54464;50.558;9.704;2023-02-28T15:02:36;5.33;;;4.83;;
27161;SDS011;54464;50.558;9.704;2023-02-28T15:07:37;6.47;;;5.37;;
27161;SDS011;54464;50.558;9.704;2023-02-28T15:10:08;6.90;;;5.30;;
27161;SDS011;54464;50.558;9.704;2023-02-28T15:12:54;6.60;;;5.70;;
27161;SDS011;54464;50.558;9.704;2023-02-28T15:15:26;6.37;;;5.07;;
27161;SDS011;54464;50.558;9.704;2023-02-28T15:17:58;7.87;;;5.40;;
27161;SDS011;54464;50.558;9.704;2023-02-28T15:20:26;5.93;;;5.10;;
27161;SDS011;54464;50.558;9.704;2023-02-28T15:22:52;6.63;;;5.37;;
27161;SDS011;54464;50.558;9.704;2023-02-28T15:25:21;6.97;;;5.37;;
27161;SDS011;54464;50.558;9.704;2023-02-28T15:27:52;5.67;;;5.03;;
27161;SDS011;54464;50.558;9.704;2023-02-28T15:30:29;7.23;;;5.60;;
27161;SDS011;54464;50.558;9.704;2023-02-28T15:33:04;9.73;;;6.60;;
27161;SDS011;54464;50.558;9.704;2023-02-28T15:35:36;7.30;;;5.40;;
27161;SDS011;54464;50.558;9.704;2023-02-28T15:38:03;6.10;;;5.50;;
27161;SDS011;54464;50.558;9.704;2023-02-28T15:40:42;6.10;;;5.50;;
27161;SDS011;54464;50.558;9.704;2023-02-28T15:43:32;5.73;;;5.13;;
27161;SDS011;54464;50.558;9.704;2023-02-28T15:46:05;6.50;;;5.83;;
27161;SDS011;54464;50.558;9.704;2023-02-28T15:48:50;7.00;;;6.30;;
27161;SDS011;54464;50.558;9.704;2023-02-28T15:51:18;6.40;;;5.37;;
27161;SDS011;54464;50.558;9.704;2023-02-28T15:56:26;7.17;;;5.80;;
27161;SDS011;54464;50.558;9.704;2023-02-28T15:58:55;7.83;;;5.37;;
27161;SDS011;54464;50.558;9.704;2023-02-28T16:01:26;6.50;;;5.80;;
27161;SDS011;54464;50.558;9.704;2023-02-28T16:04:01;7.53;;;5.70;;
27161;SDS011;54464;50.558;9.704;2023-02-28T16:06:35;7.00;;;5.93;;
27161;SDS011;54464;50.558;9.704;2023-02-28T16:09:10;6.70;;;5.77;;
27161;SDS011;54464;50.558;9.704;2023-02-28T16:11:43;7.13;;;6.20;;
27161;SDS011;54464;50.558;9.704;2023-02-28T16:14:13;7.67;;;6.13;;
27161;SDS011;54464;50.558;9.704;2023-02-28T16:16:45;8.57;;;6.20;;
27161;SDS011;54464;50.558;9.704;2023-02-28T16:19:13;8.17;;;6.80;;
27161;SDS011;54464;50.558;9.704;2023-02-28T16:21:39;7.27;;;6.57;;
27161;SDS011;54464;50.558;9.704;2023-02-28T16:24:05;8.30;;;6.90;;
27161;SDS011;54464;50.558;9.704;2023-02-28T16:26:31;11.53;;;8.37;;
27161;SDS011;54464;50.558;9.704;2023-02-28T16:28:59;9.90;;;7.17;;
27161;SDS011;54464;50.558;9.704;2023-02-28T16:31:25;8.70;;;7.27;;
27161;SDS011;54464;50.558;9.704;2023-02-28T16:33:51;8.87;;;7.10;;
27161;SDS011;54464;50.558;9.704;2023-02-28T16:36:17;12.80;;;8.47;;
27161;SDS011;54464;50.558;9.704;2023-02-28T16:38:45;9.67;;;7.60;;
27161;SDS011;54464;50.558;9.704;2023-02-28T16:41:16;10.17;;;6.67;;
27161;SDS011;54464;50.558;9.704;2023-02-28T16:43:48;8.40;;;6.80;;
27161;SDS011;54464;50.558;9.704;2023-02-28T16:46:16;6.90;;;6.20;;
27161;SDS011;54464;50.558;9.704;2023-02-28T16:48:45;7.83;;;6.57;;
27161;SDS011;54464;50.558;9.704;2023-02-28T16:51:14;7.10;;;6.40;;
27161;SDS011;54464;50.558;9.704;2023-02-28T16:53:40;9.00;;;6.47;;
27161;SDS011;54464;50.558;9.704;2023-02-28T16:56:10;7.60;;;6.80;;
27161;SDS011;54464;50.558;9.704;2023-02-28T16:58:46;7.90;;;6.80;;
27161;SDS011;54464;50.558;9.704;2023-02-28T17:01:12;8.50;;;6.87;;
27161;SDS011;54464;50.558;9.704;2023-02-28T17:03:38;9.60;;;7.73;;
27161;SDS011;54464;50.558;9.704;2023-02-28T17:06:05;9.80;;;8.07;;
27161;SDS011;54464;50.558;9.704;2023-02-28T17:08:40;10.93;;;7.60;;
27161;SDS011;54464;50.558;9.704;2023-02-28T17:11:06;9.13;;;7.70;;
27161;SDS011;54464;50.558;9.704;2023-02-28T17:13:33;9.13;;;7.60;;
27161;SDS011;54464;50.558;9.704;2023-02-28T17:15:59;8.80;;;7.67;;
27161;SDS011;54464;50.558;9.704;2023-02-28T17:18:25;9.07;;;7.53;;
27161;SDS011;54464;50.558;9.704;2023-02-28T17:20:58;8.20;;;7.40;;
27161;SDS011;54464;50.558;9.704;2023-02-28T17:23:27;8.00;;;7.20;;
27161;SDS011;54464;50.558;9.704;2023-02-28T17:25:52;8.63;;;7.60;;
27161;SDS011;54464;50.558;9.704;2023-02-28T17:28:18;8.77;;;7.63;;
27161;SDS011;54464;50.558;9.704;2023-02-28T17:30:47;8.77;;;7.40;;
27161;SDS011;54464;50.558;9.704;2023-02-28T17:33:14;9.30;;;7.60;;
27161;SDS011;54464;50.558;9.704;2023-02-28T17:35:40;9.67;;;7.67;;
27161;SDS011;54464;50.558;9.704;2023-02-28T17:38:11;9.73;;;7.97;;
27161;SDS011;54464;50.558;9.704;2023-02-28T17:40:43;8.33;;;7.50;;
27161;SDS011;54464;50.558;9.704;2023-02-28T17:43:09;9.93;;;7.47;;
27161;SDS011;54464;50.558;9.704;2023-02-28T17:48:11;15.17;;;10.57;;
27161;SDS011;54464;50.558;9.704;2023-02-28T17:50:37;11.20;;;9.93;;
27161;SDS011;54464;50.558;9.704;2023-02-28T17:53:03;11.63;;;8.70;;
27161;SDS011;54464;50.558;9.704;2023-02-28T17:55:28;10.03;;;8.43;;
27161;SDS011;54464;50.558;9.704;2023-02-28T17:57:54;12.93;;;9.73;;
27161;SDS011;54464;50.558;9.704;2023-02-28T18:00:20;10.23;;;8.43;;